sensor_id;sensor_type;location;lat;lon;timestamp;pressure;altitude;pressure_sealevel;temperature
73734;BMP280;62039;50.000;9.064;2024-02-04T00:01:56;101253.44;;;8.59
73734;BMP280;62039;50.000;9.064;2024-02-04T00:04:23;101252.63;;;8.58
73734;BMP280;62039;50.000;9.064;2024-02-04T00:06:50;101256.16;;;8.57
73734;BMP280;62039;50.000;9.064;2024-02-04T00:09:17;101257.94;;;8.57
73734;BMP280;62039;50.000;9.064;2024-02-04T00:11:47;101262.19;;;8.58
73734;BMP280;62039;50.000;9.064;2024-02-04T00:14:14;101254.53;;;8.56
73734;BMP280;62039;50.000;9.064;2024-02-04T00:16:41;101247.50;;;8.57
73734;BMP280;62039;50.000;9.064;2024-02-04T00:19:08;101250.84;;;8.59
73734;BMP280;62039;50.000;9.064;2024-02-04T00:21:35;101253.44;;;8.59
73734;BMP280;62039;50.000;9.064;2024-02-04T00:24:02;101249.19;;;8.58
73734;BMP280;62039;50.000;9.064;2024-02-04T00:26:29;101250.94;;;8.57
73734;BMP280;62039;50.000;9.064;2024-02-04T00:28:58;101245.75;;;8.57
73734;BMP280;62039;50.000;9.064;2024-02-04T00:31:25;101228.34;;;8.58
73734;BMP280;62039;50.000;9.064;2024-02-04T00:33:52;101223.97;;;8.58
73734;BMP280;62039;50.000;9.064;2024-02-04T00:36:19;101227.50;;;8.57
73734;BMP280;62039;50.000;9.064;2024-02-04T00:38:46;101226.69;;;8.57
73734;BMP280;62039;50.000;9.064;2024-02-04T00:41:13;101243.13;;;8.57
73734;BMP280;62039;50.000;9.064;2024-02-04T00:43:40;101248.34;;;8.57
73734;BMP280;62039;50.000;9.064;2024-02-04T00:46:09;101241.50;;;8.56
73734;BMP280;62039;50.000;9.064;2024-02-04T00:48:36;101226.69;;;8.57
73734;BMP280;62039;50.000;9.064;2024-02-04T00:51:04;101237.94;;;8.57
73734;BMP280;62039;50.000;9.064;2024-02-04T00:53:30;101237.81;;;8.59
73734;BMP280;62039;50.000;9.064;2024-02-04T00:55:57;101230.81;;;8.59
73734;BMP280;62039;50.000;9.064;2024-02-04T00:58:24;101228.22;;;8.59
73734;BMP280;62039;50.000;9.064;2024-02-04T01:00:51;101233.53;;;8.58
73734;BMP280;62039;50.000;9.064;2024-02-04T01:03:21;101228.34;;;8.58
73734;BMP280;62039;50.000;9.064;2024-02-04T01:05:48;101228.34;;;8.58
73734;BMP280;62039;50.000;9.064;2024-02-04T01:08:15;101229.78;;;8.62
73734;BMP280;62039;50.000;9.064;2024-02-04T01:10:42;101229.78;;;8.62
73734;BMP280;62039;50.000;9.064;2024-02-04T01:13:09;101228.84;;;8.63
73734;BMP280;62039;50.000;9.064;2024-02-04T01:15:36;101219.22;;;8.63
73734;BMP280;62039;50.000;9.064;2024-02-04T01:18:03;101225.25;;;8.64
73734;BMP280;62039;50.000;9.064;2024-02-04T01:20:33;101221.72;;;8.65
73734;BMP280;62039;50.000;9.064;2024-02-04T01:23:00;101216.50;;;8.65
73734;BMP280;62039;50.000;9.064;2024-02-04T01:25:27;101214.00;;;8.63
73734;BMP280;62039;50.000;9.064;2024-02-04T01:27:53;101211.41;;;8.63
73734;BMP280;62039;50.000;9.064;2024-02-04T01:30:20;101208.94;;;8.62
73734;BMP280;62039;50.000;9.064;2024-02-04T01:32:47;101201.00;;;8.63
73734;BMP280;62039;50.000;9.064;2024-02-04T01:35:15;101206.47;;;8.60
73734;BMP280;62039;50.000;9.064;2024-02-04T01:37:45;101222.09;;;8.60
73734;BMP280;62039;50.000;9.064;2024-02-04T01:40:12;101215.31;;;8.58
73734;BMP280;62039;50.000;9.064;2024-02-04T01:42:39;101210.25;;;8.56
73734;BMP280;62039;50.000;9.064;2024-02-04T01:45:06;101212.03;;;8.56
73734;BMP280;62039;50.000;9.064;2024-02-04T01:47:33;101217.25;;;8.56
73734;BMP280;62039;50.000;9.064;2024-02-04T01:50:01;101219.00;;;8.55
73734;BMP280;62039;50.000;9.064;2024-02-04T01:52:30;101219.84;;;8.56
73734;BMP280;62039;50.000;9.064;2024-02-04T01:55:00;101226.69;;;8.57
73734;BMP280;62039;50.000;9.064;2024-02-04T01:57:28;101224.78;;;8.59
73734;BMP280;62039;50.000;9.064;2024-02-04T01:59:55;101219.50;;;8.60
73734;BMP280;62039;50.000;9.064;2024-02-04T02:02:23;101221.28;;;8.60
73734;BMP280;62039;50.000;9.064;2024-02-04T02:04:50;101223.75;;;8.61
73734;BMP280;62039;50.000;9.064;2024-02-04T02:07:18;101235.00;;;8.62
73734;BMP280;62039;50.000;9.064;2024-02-04T02:09:45;101232.41;;;8.62
73734;BMP280;62039;50.000;9.064;2024-02-04T02:12:18;101235.00;;;8.62
73734;BMP280;62039;50.000;9.064;2024-02-04T02:14:50;101228.13;;;8.61
73734;BMP280;62039;50.000;9.064;2024-02-04T02:17:25;101231.69;;;8.60
73734;BMP280;62039;50.000;9.064;2024-02-04T02:19:59;101226.56;;;8.58
73734;BMP280;62039;50.000;9.064;2024-02-04T02:22:29;101223.13;;;8.58
73734;BMP280;62039;50.000;9.064;2024-02-04T02:24:59;101234.50;;;8.57
73734;BMP280;62039;50.000;9.064;2024-02-04T02:27:26;101226.94;;;8.54
73734;BMP280;62039;50.000;9.064;2024-02-04T02:29:53;101213.22;;;8.52
73734;BMP280;62039;50.000;9.064;2024-02-04T02:32:20;101214.03;;;8.52
73734;BMP280;62039;50.000;9.064;2024-02-04T02:34:47;101207.88;;;8.53
73734;BMP280;62039;50.000;9.064;2024-02-04T02:37:23;101208.59;;;8.55
73734;BMP280;62039;50.000;9.064;2024-02-04T02:40:01;101203.50;;;8.54
73734;BMP280;62039;50.000;9.064;2024-02-04T02:42:29;101210.59;;;8.52
73734;BMP280;62039;50.000;9.064;2024-02-04T02:44:57;101208.00;;;8.52
73734;BMP280;62039;50.000;9.064;2024-02-04T02:47:24;101208.00;;;8.52
73734;BMP280;62039;50.000;9.064;2024-02-04T02:49:52;101201.97;;;8.51
73734;BMP280;62039;50.000;9.064;2024-02-04T02:52:20;101196.63;;;8.53
73734;BMP280;62039;50.000;9.064;2024-02-04T02:54:47;101201.03;;;8.52
73734;BMP280;62039;50.000;9.064;2024-02-04T02:57:16;101197.59;;;8.52
73734;BMP280;62039;50.000;9.064;2024-02-04T02:59:43;101198.53;;;8.51
73734;BMP280;62039;50.000;9.064;2024-02-04T03:02:10;101202.78;;;8.52
73734;BMP280;62039;50.000;9.064;2024-02-04T03:04:37;101197.59;;;8.52
73734;BMP280;62039;50.000;9.064;2024-02-04T03:07:04;101204.56;;;8.51
73734;BMP280;62039;50.000;9.064;2024-02-04T03:09:31;101202.13;;;8.50
73734;BMP280;62039;50.000;9.064;2024-02-04T03:11:58;101198.69;;;8.49
73734;BMP280;62039;50.000;9.064;2024-02-04T03:14:28;101197.84;;;8.49
73734;BMP280;62039;50.000;9.064;2024-02-04T03:16:55;101190.28;;;8.46
73734;BMP280;62039;50.000;9.064;2024-02-04T03:19:22;101194.78;;;8.44
73734;BMP280;62039;50.000;9.064;2024-02-04T03:21:49;101189.00;;;8.40
73734;BMP280;62039;50.000;9.064;2024-02-04T03:24:16;101186.53;;;8.39
73734;BMP280;62039;50.000;9.064;2024-02-04T03:26:43;101184.03;;;8.37
73734;BMP280;62039;50.000;9.064;2024-02-04T03:29:10;101194.59;;;8.36
73734;BMP280;62039;50.000;9.064;2024-02-04T03:31:39;101201.00;;;8.32
73734;BMP280;62039;50.000;9.064;2024-02-04T03:34:06;101194.38;;;8.28
73734;BMP280;62039;50.000;9.064;2024-02-04T03:36:33;101192.72;;;8.27
73734;BMP280;62039;50.000;9.064;2024-02-04T03:39:00;101196.28;;;8.25
73734;BMP280;62039;50.000;9.064;2024-02-04T03:41:27;101192.72;;;8.27
73734;BMP280;62039;50.000;9.064;2024-02-04T03:43:54;101189.41;;;8.24
73734;BMP280;62039;50.000;9.064;2024-02-04T03:46:21;101186.69;;;8.26
73734;BMP280;62039;50.000;9.064;2024-02-04T03:48:50;101185.88;;;8.25
73734;BMP280;62039;50.000;9.064;2024-02-04T03:51:18;101168.59;;;8.24
73734;BMP280;62039;50.000;9.064;2024-02-04T03:53:47;101172.41;;;8.20
73734;BMP280;62039;50.000;9.064;2024-02-04T03:56:14;101171.69;;;8.18
73734;BMP280;62039;50.000;9.064;2024-02-04T03:58:41;101164.84;;;8.17
73734;BMP280;62039;50.000;9.064;2024-02-04T04:01:09;101165.78;;;8.16
73734;BMP280;62039;50.000;9.064;2024-02-04T04:03:39;101163.06;;;8.18
73734;BMP280;62039;50.000;9.064;2024-02-04T04:06:08;101158.69;;;8.18
73734;BMP280;62039;50.000;9.064;2024-02-04T04:08:36;101160.44;;;8.18
73734;BMP280;62039;50.000;9.064;2024-02-04T04:11:03;101164.84;;;8.17
73734;BMP280;62039;50.000;9.064;2024-02-04T04:13:30;101166.75;;;8.15
73734;BMP280;62039;50.000;9.064;2024-02-04T04:15:57;101161.66;;;8.14
73734;BMP280;62039;50.000;9.064;2024-02-04T04:18:24;101168.75;;;8.12
73734;BMP280;62039;50.000;9.064;2024-02-04T04:20:51;101167.09;;;8.11
73734;BMP280;62039;50.000;9.064;2024-02-04T04:23:20;101175.84;;;8.10
73734;BMP280;62039;50.000;9.064;2024-02-04T04:25:47;101182.16;;;8.07
73734;BMP280;62039;50.000;9.064;2024-02-04T04:28:14;101183.09;;;8.06
73734;BMP280;62039;50.000;9.064;2024-02-04T04:30:41;101180.72;;;8.03
73734;BMP280;62039;50.000;9.064;2024-02-04T04:33:08;101182.66;;;8.01
73734;BMP280;62039;50.000;9.064;2024-02-04T04:35:35;101186.91;;;8.02
73734;BMP280;62039;50.000;9.064;2024-02-04T04:38:02;101182.53;;;8.03
73734;BMP280;62039;50.000;9.064;2024-02-04T04:40:32;101188.41;;;8.05
73734;BMP280;62039;50.000;9.064;2024-02-04T04:42:59;101189.97;;;8.07
73734;BMP280;62039;50.000;9.064;2024-02-04T04:45:26;101186.53;;;8.07
73734;BMP280;62039;50.000;9.064;2024-02-04T04:47:53;101174.56;;;8.04
73734;BMP280;62039;50.000;9.064;2024-02-04T04:50:20;101178.84;;;8.05
73734;BMP280;62039;50.000;9.064;2024-02-04T04:52:47;101170.19;;;8.05
73734;BMP280;62039;50.000;9.064;2024-02-04T04:55:15;101170.91;;;8.07
73734;BMP280;62039;50.000;9.064;2024-02-04T04:57:44;101166.53;;;8.07
73734;BMP280;62039;50.000;9.064;2024-02-04T05:00:13;101173.63;;;8.05
73734;BMP280;62039;50.000;9.064;2024-02-04T05:02:40;101185.13;;;8.03
73734;BMP280;62039;50.000;9.064;2024-02-04T05:05:07;101181.00;;;8.00
73734;BMP280;62039;50.000;9.064;2024-02-04T05:07:34;101182.75;;;8.00
73734;BMP280;62039;50.000;9.064;2024-02-04T05:10:01;101177.44;;;8.01
73734;BMP280;62039;50.000;9.064;2024-02-04T05:12:28;101173.91;;;8.02
73734;BMP280;62039;50.000;9.064;2024-02-04T05:14:58;101180.72;;;8.03
73734;BMP280;62039;50.000;9.064;2024-02-04T05:17:25;101180.72;;;8.03
73734;BMP280;62039;50.000;9.064;2024-02-04T05:19:52;101177.31;;;8.03
73734;BMP280;62039;50.000;9.064;2024-02-04T05:22:19;101173.91;;;8.02
73734;BMP280;62039;50.000;9.064;2024-02-04T05:24:46;101175.78;;;8.00
73734;BMP280;62039;50.000;9.064;2024-02-04T05:27:13;101167.25;;;7.98
73734;BMP280;62039;50.000;9.064;2024-02-04T05:29:40;101176.03;;;7.97
73734;BMP280;62039;50.000;9.064;2024-02-04T05:32:10;101173.69;;;7.94
73734;BMP280;62039;50.000;9.064;2024-02-04T05:34:37;101153.91;;;7.92
73734;BMP280;62039;50.000;9.064;2024-02-04T05:37:04;101159.25;;;7.90
73734;BMP280;62039;50.000;9.064;2024-02-04T05:39:31;101167.88;;;7.91
73734;BMP280;62039;50.000;9.064;2024-02-04T05:41:58;101171.31;;;7.91
73734;BMP280;62039;50.000;9.064;2024-02-04T05:44:25;101167.75;;;7.92
73734;BMP280;62039;50.000;9.064;2024-02-04T05:46:52;101165.88;;;7.94
73734;BMP280;62039;50.000;9.064;2024-02-04T05:49:21;101165.88;;;7.94
73734;BMP280;62039;50.000;9.064;2024-02-04T05:51:49;101179.09;;;7.91
73734;BMP280;62039;50.000;9.064;2024-02-04T05:54:16;101181.03;;;7.89
73734;BMP280;62039;50.000;9.064;2024-02-04T05:56:42;101160.31;;;7.88
73734;BMP280;62039;50.000;9.064;2024-02-04T05:59:09;101156.91;;;7.87
73734;BMP280;62039;50.000;9.064;2024-02-04T06:01:36;101174.41;;;7.85
73734;BMP280;62039;50.000;9.064;2024-02-04T06:04:03;101170.97;;;7.84
73734;BMP280;62039;50.000;9.064;2024-02-04T06:06:33;101182.19;;;7.85
73734;BMP280;62039;50.000;9.064;2024-02-04T06:09:01;101177.81;;;7.85
73734;BMP280;62039;50.000;9.064;2024-02-04T06:11:27;101183.84;;;7.86
73734;BMP280;62039;50.000;9.064;2024-02-04T06:13:54;101183.03;;;7.85
73734;BMP280;62039;50.000;9.064;2024-02-04T06:16:21;101193.44;;;7.85
73734;BMP280;62039;50.000;9.064;2024-02-04T06:18:48;101183.16;;;7.84
73734;BMP280;62039;50.000;9.064;2024-02-04T06:21:15;101180.53;;;7.84
73734;BMP280;62039;50.000;9.064;2024-02-04T06:23:45;101174.41;;;7.85
73734;BMP280;62039;50.000;9.064;2024-02-04T06:26:12;101177.81;;;7.85
73734;BMP280;62039;50.000;9.064;2024-02-04T06:28:39;101160.31;;;7.88
73734;BMP280;62039;50.000;9.064;2024-02-04T06:31:08;101163.75;;;7.88
73734;BMP280;62039;50.000;9.064;2024-02-04T06:33:36;101159.38;;;7.89
73734;BMP280;62039;50.000;9.064;2024-02-04T06:36:08;101166.38;;;7.88
73734;BMP280;62039;50.000;9.064;2024-02-04T06:38:35;101165.41;;;7.89
73734;BMP280;62039;50.000;9.064;2024-02-04T06:41:05;101159.25;;;7.90
73734;BMP280;62039;50.000;9.064;2024-02-04T06:43:32;101155.69;;;7.91
73734;BMP280;62039;50.000;9.064;2024-02-04T06:46:02;101161.72;;;7.92
73734;BMP280;62039;50.000;9.064;2024-02-04T06:48:30;101163.38;;;7.93
73734;BMP280;62039;50.000;9.064;2024-02-04T06:50:57;101159.84;;;7.94
73734;BMP280;62039;50.000;9.064;2024-02-04T06:53:24;101161.59;;;7.93
73734;BMP280;62039;50.000;9.064;2024-02-04T06:55:54;101155.47;;;7.94
73734;BMP280;62039;50.000;9.064;2024-02-04T06:58:24;101159.56;;;7.97
73734;BMP280;62039;50.000;9.064;2024-02-04T07:00:51;101165.59;;;7.97
73734;BMP280;62039;50.000;9.064;2024-02-04T07:03:17;101159.56;;;7.97
73734;BMP280;62039;50.000;9.064;2024-02-04T07:05:45;101154.38;;;7.97
73734;BMP280;62039;50.000;9.064;2024-02-04T07:08:12;101156.28;;;7.95
73734;BMP280;62039;50.000;9.064;2024-02-04T07:10:38;101152.88;;;7.94
73734;BMP280;62039;50.000;9.064;2024-02-04T07:13:05;101161.59;;;7.93
73734;BMP280;62039;50.000;9.064;2024-02-04T07:15:35;101164.22;;;7.93
73734;BMP280;62039;50.000;9.064;2024-02-04T07:18:02;101158.06;;;7.94
73734;BMP280;62039;50.000;9.064;2024-02-04T07:20:29;101152.88;;;7.94
73734;BMP280;62039;50.000;9.064;2024-02-04T07:22:56;101150.25;;;7.94
73734;BMP280;62039;50.000;9.064;2024-02-04T07:25:23;101157.94;;;7.96
73734;BMP280;62039;50.000;9.064;2024-02-04T07:27:50;101165.59;;;7.97
73734;BMP280;62039;50.000;9.064;2024-02-04T07:30:17;101161.94;;;8.00
73734;BMP280;62039;50.000;9.064;2024-02-04T07:32:47;101172.25;;;8.01
73734;BMP280;62039;50.000;9.064;2024-02-04T07:35:14;101167.72;;;8.03
73734;BMP280;62039;50.000;9.064;2024-02-04T07:37:41;101171.16;;;8.04
73734;BMP280;62039;50.000;9.064;2024-02-04T07:40:08;101171.03;;;8.05
73734;BMP280;62039;50.000;9.064;2024-02-04T07:42:35;101168.53;;;8.04
73734;BMP280;62039;50.000;9.064;2024-02-04T07:45:03;101170.31;;;8.03
73734;BMP280;62039;50.000;9.064;2024-02-04T07:47:30;101161.56;;;8.04
73734;BMP280;62039;50.000;9.064;2024-02-04T07:49:59;101169.97;;;8.08
73734;BMP280;62039;50.000;9.064;2024-02-04T07:52:26;101163.09;;;8.07
73734;BMP280;62039;50.000;9.064;2024-02-04T07:54:53;101159.69;;;8.06
73734;BMP280;62039;50.000;9.064;2024-02-04T07:57:20;101168.19;;;8.08
73734;BMP280;62039;50.000;9.064;2024-02-04T07:59:47;101158.63;;;8.09
73734;BMP280;62039;50.000;9.064;2024-02-04T08:02:14;101163.00;;;8.08
73734;BMP280;62039;50.000;9.064;2024-02-04T08:04:41;101168.19;;;8.08
73734;BMP280;62039;50.000;9.064;2024-02-04T08:07:11;101163.00;;;8.08
73734;BMP280;62039;50.000;9.064;2024-02-04T08:09:38;101165.72;;;8.07
73734;BMP280;62039;50.000;9.064;2024-02-04T08:12:05;101163.22;;;8.05
73734;BMP280;62039;50.000;9.064;2024-02-04T08:14:32;101145.94;;;8.04
73734;BMP280;62039;50.000;9.064;2024-02-04T08:16:59;101151.88;;;8.06
73734;BMP280;62039;50.000;9.064;2024-02-04T08:19:26;101156.97;;;8.08
73734;BMP280;62039;50.000;9.064;2024-02-04T08:21:53;101167.25;;;8.09
73734;BMP280;62039;50.000;9.064;2024-02-04T08:24:22;101154.91;;;8.11
73734;BMP280;62039;50.000;9.064;2024-02-04T08:26:49;101157.41;;;8.13
73734;BMP280;62039;50.000;9.064;2024-02-04T08:29:16;101149.59;;;8.13
73734;BMP280;62039;50.000;9.064;2024-02-04T08:31:43;101154.69;;;8.14
73734;BMP280;62039;50.000;9.064;2024-02-04T08:34:10;101158.94;;;8.15
73734;BMP280;62039;50.000;9.064;2024-02-04T08:36:37;101147.56;;;8.16
73734;BMP280;62039;50.000;9.064;2024-02-04T08:39:04;101147.56;;;8.16
73734;BMP280;62039;50.000;9.064;2024-02-04T08:41:34;101148.38;;;8.17
73734;BMP280;62039;50.000;9.064;2024-02-04T08:44:01;101154.56;;;8.16
73734;BMP280;62039;50.000;9.064;2024-02-04T08:46:30;101155.25;;;8.18
73734;BMP280;62039;50.000;9.064;2024-02-04T08:48:57;101156.78;;;8.20
73734;BMP280;62039;50.000;9.064;2024-02-04T08:51:24;101168.72;;;8.23
73734;BMP280;62039;50.000;9.064;2024-02-04T08:53:55;101160.91;;;8.23
73734;BMP280;62039;50.000;9.064;2024-02-04T08:56:22;101170.50;;;8.22
73734;BMP280;62039;50.000;9.064;2024-02-04T08:58:52;101168.84;;;8.21
73734;BMP280;62039;50.000;9.064;2024-02-04T09:01:19;101160.09;;;8.22
73734;BMP280;62039;50.000;9.064;2024-02-04T09:03:46;101168.72;;;8.23
73734;BMP280;62039;50.000;9.064;2024-02-04T09:06:13;101166.94;;;8.23
73734;BMP280;62039;50.000;9.064;2024-02-04T09:08:40;101172.03;;;8.25
73734;BMP280;62039;50.000;9.064;2024-02-04T09:11:07;101156.28;;;8.27
73734;BMP280;62039;50.000;9.064;2024-02-04T09:13:34;101171.91;;;8.27
73734;BMP280;62039;50.000;9.064;2024-02-04T09:16:04;101167.53;;;8.27
73734;BMP280;62039;50.000;9.064;2024-02-04T09:18:31;101161.38;;;8.28
73734;BMP280;62039;50.000;9.064;2024-02-04T09:20:59;101142.31;;;8.28
73734;BMP280;62039;50.000;9.064;2024-02-04T09:23:26;101147.25;;;8.31
73734;BMP280;62039;50.000;9.064;2024-02-04T09:25:53;101155.78;;;8.33
73734;BMP280;62039;50.000;9.064;2024-02-04T09:28:20;101147.03;;;8.34
73734;BMP280;62039;50.000;9.064;2024-02-04T09:30:47;101147.84;;;8.34
73734;BMP280;62039;50.000;9.064;2024-02-04T09:33:17;101160.03;;;8.34
73734;BMP280;62039;50.000;9.064;2024-02-04T09:35:44;101150.56;;;8.33
73734;BMP280;62039;50.000;9.064;2024-02-04T09:38:11;101156.72;;;8.32
73734;BMP280;62039;50.000;9.064;2024-02-04T09:40:40;101148.91;;;8.32
73734;BMP280;62039;50.000;9.064;2024-02-04T09:43:07;101152.22;;;8.34
73734;BMP280;62039;50.000;9.064;2024-02-04T09:45:35;101151.97;;;8.37
73734;BMP280;62039;50.000;9.064;2024-02-04T09:48:03;101145.81;;;8.38
73734;BMP280;62039;50.000;9.064;2024-02-04T09:50:33;101140.47;;;8.39
73734;BMP280;62039;50.000;9.064;2024-02-04T09:53:03;101148.19;;;8.41
73734;BMP280;62039;50.000;9.064;2024-02-04T09:55:34;101139.41;;;8.42
73734;BMP280;62039;50.000;9.064;2024-02-04T09:58:03;101129.56;;;8.45
73734;BMP280;62039;50.000;9.064;2024-02-04T10:00:30;101132.75;;;8.49
73734;BMP280;62039;50.000;9.064;2024-02-04T10:03:00;101130.69;;;8.52
73734;BMP280;62039;50.000;9.064;2024-02-04T10:05:28;101146.09;;;8.55
73734;BMP280;62039;50.000;9.064;2024-02-04T10:07:58;101132.72;;;8.60
73734;BMP280;62039;50.000;9.064;2024-02-04T10:10:25;101138.63;;;8.62
73734;BMP280;62039;50.000;9.064;2024-02-04T10:12:52;101143.69;;;8.63
73734;BMP280;62039;50.000;9.064;2024-02-04T10:15:19;101138.22;;;8.67
73734;BMP280;62039;50.000;9.064;2024-02-04T10:17:46;101133.59;;;8.70
73734;BMP280;62039;50.000;9.064;2024-02-04T10:20:13;101122.91;;;8.73
73734;BMP280;62039;50.000;9.064;2024-02-04T10:22:46;101127.88;;;8.76
73734;BMP280;62039;50.000;9.064;2024-02-04T10:25:15;101131.03;;;8.80
73734;BMP280;62039;50.000;9.064;2024-02-04T10:27:42;101132.56;;;8.82
73734;BMP280;62039;50.000;9.064;2024-02-04T10:30:11;101127.22;;;8.84
73734;BMP280;62039;50.000;9.064;2024-02-04T10:32:38;101128.88;;;8.85
73734;BMP280;62039;50.000;9.064;2024-02-04T10:35:06;101130.41;;;8.87
73734;BMP280;62039;50.000;9.064;2024-02-04T10:37:34;101139.59;;;8.91
73734;BMP280;62039;50.000;9.064;2024-02-04T10:40:01;101129.03;;;8.93
73734;BMP280;62039;50.000;9.064;2024-02-04T10:42:31;101121.09;;;8.94
73734;BMP280;62039;50.000;9.064;2024-02-04T10:44:58;101117.53;;;8.95
73734;BMP280;62039;50.000;9.064;2024-02-04T10:47:30;101121.81;;;8.96
73734;BMP280;62039;50.000;9.064;2024-02-04T10:49:58;101111.38;;;8.96
73734;BMP280;62039;50.000;9.064;2024-02-04T10:52:27;101105.91;;;8.99
73734;BMP280;62039;50.000;9.064;2024-02-04T10:54:55;101117.84;;;9.02
73734;BMP280;62039;50.000;9.064;2024-02-04T10:57:23;101115.13;;;9.03
73734;BMP280;62039;50.000;9.064;2024-02-04T10:59:53;101113.19;;;9.06
73734;BMP280;62039;50.000;9.064;2024-02-04T11:02:21;101107.97;;;9.06
73734;BMP280;62039;50.000;9.064;2024-02-04T11:04:48;101127.16;;;9.04
73734;BMP280;62039;50.000;9.064;2024-02-04T11:07:17;101109.09;;;9.03
73734;BMP280;62039;50.000;9.064;2024-02-04T11:09:45;101097.81;;;9.02
73734;BMP280;62039;50.000;9.064;2024-02-04T11:12:14;101094.28;;;9.03
73734;BMP280;62039;50.000;9.064;2024-02-04T11:14:46;101089.84;;;9.04
73734;BMP280;62039;50.000;9.064;2024-02-04T11:20:47;101083.13;;;9.01
73734;BMP280;62039;50.000;9.064;2024-02-04T11:23:35;101084.22;;;8.99
73734;BMP280;62039;50.000;9.064;2024-02-04T11:26:03;101083.13;;;9.01
73734;BMP280;62039;50.000;9.064;2024-02-04T11:28:31;101073.53;;;9.02
73734;BMP280;62039;50.000;9.064;2024-02-04T11:30:58;101065.44;;;9.05
73734;BMP280;62039;50.000;9.064;2024-02-04T11:33:27;101057.50;;;9.07
73734;BMP280;62039;50.000;9.064;2024-02-04T11:36:06;101056.66;;;9.06
73734;BMP280;62039;50.000;9.064;2024-02-04T11:38:36;101057.50;;;9.07
73734;BMP280;62039;50.000;9.064;2024-02-04T11:41:04;101059.16;;;9.08
73734;BMP280;62039;50.000;9.064;2024-02-04T11:43:32;101055.59;;;9.09
73734;BMP280;62039;50.000;9.064;2024-02-04T11:46:00;101051.03;;;9.11
73734;BMP280;62039;50.000;9.064;2024-02-04T11:48:29;101057.78;;;9.13
73734;BMP280;62039;50.000;9.064;2024-02-04T11:50:58;101054.09;;;9.16
73734;BMP280;62039;50.000;9.064;2024-02-04T11:53:28;101061.09;;;9.15
73734;BMP280;62039;50.000;9.064;2024-02-04T11:55:56;101064.66;;;9.14
73734;BMP280;62039;50.000;9.064;2024-02-04T11:58:23;101062.19;;;9.13
73734;BMP280;62039;50.000;9.064;2024-02-04T12:00:52;101064.78;;;9.13
73734;BMP280;62039;50.000;9.064;2024-02-04T12:03:28;101058.63;;;9.14
73734;BMP280;62039;50.000;9.064;2024-02-04T12:05:56;101053.41;;;9.14
73734;BMP280;62039;50.000;9.064;2024-02-04T12:08:24;101055.19;;;9.13
73734;BMP280;62039;50.000;9.064;2024-02-04T12:10:54;101063.84;;;9.14
73734;BMP280;62039;50.000;9.064;2024-02-04T12:13:21;101066.44;;;9.14
73734;BMP280;62039;50.000;9.064;2024-02-04T12:15:48;101052.44;;;9.15
73734;BMP280;62039;50.000;9.064;2024-02-04T12:18:16;101041.91;;;9.16
73734;BMP280;62039;50.000;9.064;2024-02-04T12:20:43;101049.56;;;9.18
73734;BMP280;62039;50.000;9.064;2024-02-04T12:23:10;101042.44;;;9.20
73734;BMP280;62039;50.000;9.064;2024-02-04T12:25:37;101037.22;;;9.20
73734;BMP280;62039;50.000;9.064;2024-02-04T12:28:13;101037.22;;;9.20
73734;BMP280;62039;50.000;9.064;2024-02-04T12:30:40;101025.16;;;9.19
73734;BMP280;62039;50.000;9.064;2024-02-04T12:33:07;101027.75;;;9.19
73734;BMP280;62039;50.000;9.064;2024-02-04T12:35:35;101032.28;;;9.17
73734;BMP280;62039;50.000;9.064;2024-02-04T12:38:02;101021.88;;;9.17
73734;BMP280;62039;50.000;9.064;2024-02-04T12:40:30;101027.09;;;9.17
73734;BMP280;62039;50.000;9.064;2024-02-04T12:42:58;101025.44;;;9.16
73734;BMP280;62039;50.000;9.064;2024-02-04T12:45:33;101022.13;;;9.14
73734;BMP280;62039;50.000;9.064;2024-02-04T12:48:01;101022.13;;;9.14
73734;BMP280;62039;50.000;9.064;2024-02-04T12:50:28;101009.22;;;9.12
73734;BMP280;62039;50.000;9.064;2024-02-04T12:53:02;101020.47;;;9.13
73734;BMP280;62039;50.000;9.064;2024-02-04T12:55:30;101010.03;;;9.13
73734;BMP280;62039;50.000;9.064;2024-02-04T12:58:04;101010.16;;;9.11
73734;BMP280;62039;50.000;9.064;2024-02-04T13:00:35;101006.72;;;9.11
73734;BMP280;62039;50.000;9.064;2024-02-04T13:03:04;101008.38;;;9.12
73734;BMP280;62039;50.000;9.064;2024-02-04T13:05:31;101018.69;;;9.13
73734;BMP280;62039;50.000;9.064;2024-02-04T13:07:59;101009.09;;;9.14
73734;BMP280;62039;50.000;9.064;2024-02-04T13:10:26;101002.22;;;9.13
73734;BMP280;62039;50.000;9.064;2024-02-04T13:13:00;101002.22;;;9.13
73734;BMP280;62039;50.000;9.064;2024-02-04T13:15:28;101001.13;;;9.15
73734;BMP280;62039;50.000;9.064;2024-02-04T13:17:58;100997.41;;;9.18
73734;BMP280;62039;50.000;9.064;2024-02-04T13:20:26;100985.09;;;9.20
73734;BMP280;62039;50.000;9.064;2024-02-04T13:22:57;100985.78;;;9.22
73734;BMP280;62039;50.000;9.064;2024-02-04T13:25:24;100986.31;;;9.25
73734;BMP280;62039;50.000;9.064;2024-02-04T13:27:52;100968.63;;;9.29
73734;BMP280;62039;50.000;9.064;2024-02-04T13:30:19;100972.75;;;9.31
73734;BMP280;62039;50.000;9.064;2024-02-04T13:32:46;100985.66;;;9.33
73734;BMP280;62039;50.000;9.064;2024-02-04T13:35:16;100985.53;;;9.34
73734;BMP280;62039;50.000;9.064;2024-02-04T13:37:47;100995.81;;;9.36
73734;BMP280;62039;50.000;9.064;2024-02-04T13:40:15;101001.56;;;9.39
73734;BMP280;62039;50.000;9.064;2024-02-04T13:42:43;101008.19;;;9.43
73734;BMP280;62039;50.000;9.064;2024-02-04T13:45:11;101002.16;;;9.43
73734;BMP280;62039;50.000;9.064;2024-02-04T13:47:38;100995.28;;;9.42
73734;BMP280;62039;50.000;9.064;2024-02-04T13:50:06;101000.50;;;9.42
73734;BMP280;62039;50.000;9.064;2024-02-04T13:52:36;101000.50;;;9.42
73734;BMP280;62039;50.000;9.064;2024-02-04T13:55:04;100983.06;;;9.42
73734;BMP280;62039;50.000;9.064;2024-02-04T13:57:32;100982.94;;;9.44
73734;BMP280;62039;50.000;9.064;2024-02-04T13:59:59;100991.41;;;9.46
73734;BMP280;62039;50.000;9.064;2024-02-04T14:02:27;100988.00;;;9.46
73734;BMP280;62039;50.000;9.064;2024-02-04T14:04:53;100995.69;;;9.47
73734;BMP280;62039;50.000;9.064;2024-02-04T14:07:21;100989.50;;;9.48
73734;BMP280;62039;50.000;9.064;2024-02-04T14:09:50;100996.38;;;9.49
73734;BMP280;62039;50.000;9.064;2024-02-04T14:12:17;100992.00;;;9.50
73734;BMP280;62039;50.000;9.064;2024-02-04T14:14:44;100990.88;;;9.52
73734;BMP280;62039;50.000;9.064;2024-02-04T14:17:11;100998.69;;;9.52